Astrid Conroy — ZGAQ5 — position and weather

sailwx.info

Track history (hours):
 
Tides and Currents Weather Stations Pressure Air Temp Water Temp Dewpoint Dewpoint Depression Visibility Wind Speed Wind Dir Waves Ship Positions

Astrid Conroy

Last reported at 2015-Jul-31 06:10 UTC. Time now 2015-Aug-02 06:24 UTC.
Position N 40°14' E 019°17'.

Length 58 m; draft 3.5 m.

Type: Pleasure craft. MMSI: 319031500.

Date/timePositionNaut miles runAvg speedWind from/ knotsBaromVisibWave heightAir tempDewpointWater temp
2015-Jul-31 06:10N 40°14' E 019°17'1315.2
2015-Jul-31 05:20N 40°23' E 019°05'1215.3
2015-Jul-31 04:32N 40°35' E 019°00'3115.3
2015-Jul-31 02:31N 41°06' E 019°01'1915.5
2015-Jul-31 01:19N 41°24' E 019°02'46 6.0
2015-Jul-30 17:33N 42°10' E 018°56'7 6.9
2015-Jul-30 16:30N 42°17' E 018°52'2 0.3
2015-Jul-30 10:31N 42°15' E 018°50'1515.7
2015-Jul-30 09:33N 42°23' E 018°33'7 7.4
2015-Jul-30 08:33N 42°28' E 018°41'4 3.7
2015-Jul-30 07:33N 42°27' E 018°46'4 3.7
2015-Jul-30 06:33N 42°27' E 018°41'1 1.3
2015-Jul-30 05:33N 42°26' E 018°42'0 0.0
2015-Jul-30 04:33N 42°26' E 018°42'0 0.0
2015-Jul-30 03:33N 42°26' E 018°42'0 0.0
2015-Jul-30 02:33N 42°26' E 018°42'0 0.0
2015-Jul-30 01:33N 42°26' E 018°42'0 0.0
2015-Jul-30 00:33N 42°26' E 018°42'0 0.0
2015-Jul-29 23:33N 42°26' E 018°42'0 0.0
2015-Jul-29 22:33N 42°26' E 018°42'0 0.0
2015-Jul-29 21:33N 42°26' E 018°42'0 0.0
2015-Jul-29 20:33N 42°26' E 018°42'0 0.0
2015-Jul-29 19:33N 42°26' E 018°42'0 0.1
2015-Jul-29 18:33N 42°26' E 018°41'1 0.8
2015-Jul-29 17:33N 42°25' E 018°41'0 0.0
2015-Jul-29 16:33N 42°25' E 018°41'0 0.0
2015-Jul-29 15:33N 42°25' E 018°41'0 0.0
2015-Jul-29 14:33N 42°25' E 018°41'1 0.9
2015-Jul-29 13:34N 42°26' E 018°41'3 2.7
2015-Jul-29 12:33N 42°26' E 018°37'8 8.0
2015-Jul-29 11:33N 42°24' E 018°27'  
Track history (hours):
 
Tides and Currents Weather Stations Pressure Air Temp Water Temp Dewpoint Dewpoint Depression Visibility Wind Speed Wind Dir Waves Ship Positions

Astrid Conroy

Last reported at 2015-Jul-31 06:10 UTC. Time now 2015-Aug-02 06:24 UTC.
Position N 40°14' E 019°17'.

Length 58 m; draft 3.5 m.

Type: Pleasure craft. MMSI: 319031500.

Date/timePositionNaut miles runAvg speedWind from/ knotsBaromVisibWave heightAir tempDewpointWater temp
2015-Jul-31 06:10N 40°14' E 019°17'1315.2
2015-Jul-31 05:20N 40°23' E 019°05'1215.3
2015-Jul-31 04:32N 40°35' E 019°00'3115.3
2015-Jul-31 02:31N 41°06' E 019°01'1915.5
2015-Jul-31 01:19N 41°24' E 019°02'46 6.0
2015-Jul-30 17:33N 42°10' E 018°56'7 6.9
2015-Jul-30 16:30N 42°17' E 018°52'2 0.3
2015-Jul-30 10:31N 42°15' E 018°50'1515.7
2015-Jul-30 09:33N 42°23' E 018°33'7 7.4
2015-Jul-30 08:33N 42°28' E 018°41'4 3.7
2015-Jul-30 07:33N 42°27' E 018°46'4 3.7
2015-Jul-30 06:33N 42°27' E 018°41'1 1.3
2015-Jul-30 05:33N 42°26' E 018°42'0 0.0
2015-Jul-30 04:33N 42°26' E 018°42'0 0.0
2015-Jul-30 03:33N 42°26' E 018°42'0 0.0
2015-Jul-30 02:33N 42°26' E 018°42'0 0.0
2015-Jul-30 01:33N 42°26' E 018°42'0 0.0
2015-Jul-30 00:33N 42°26' E 018°42'0 0.0
2015-Jul-29 23:33N 42°26' E 018°42'0 0.0
2015-Jul-29 22:33N 42°26' E 018°42'0 0.0
2015-Jul-29 21:33N 42°26' E 018°42'0 0.0
2015-Jul-29 20:33N 42°26' E 018°42'0 0.0
2015-Jul-29 19:33N 42°26' E 018°42'0 0.1
2015-Jul-29 18:33N 42°26' E 018°41'1 0.8
2015-Jul-29 17:33N 42°25' E 018°41'0 0.0
2015-Jul-29 16:33N 42°25' E 018°41'0 0.0
2015-Jul-29 15:33N 42°25' E 018°41'0 0.0
2015-Jul-29 14:33N 42°25' E 018°41'1 0.9
2015-Jul-29 13:34N 42°26' E 018°41'3 2.7
2015-Jul-29 12:33N 42°26' E 018°37'8 8.0
2015-Jul-29 11:33N 42°24' E 018°27'  

Dump ship's entire track history